createdAt,value
2022-08-12T00:01:12.203Z,5.40
2022-08-12T00:03:58.836Z,5.50
2022-08-12T00:06:47.000Z,5.00
2022-08-12T00:09:33.179Z,5.00
2022-08-12T00:12:20.703Z,5.20
2022-08-12T00:15:08.429Z,4.90
2022-08-12T00:17:54.961Z,4.80
2022-08-12T00:20:41.076Z,4.70
2022-08-12T00:23:27.184Z,4.90
2022-08-12T00:26:22.420Z,4.80
2022-08-12T00:29:11.910Z,4.80
2022-08-12T00:32:00.473Z,5.00
2022-08-12T00:34:48.495Z,4.90
2022-08-12T00:37:35.896Z,4.80
2022-08-12T00:40:24.047Z,5.00
2022-08-12T00:42:53.482Z,4.60
2022-08-12T00:45:21.378Z,4.80
2022-08-12T00:47:51.319Z,4.80
2022-08-12T00:50:21.051Z,4.60
2022-08-12T00:52:52.536Z,4.80
2022-08-12T00:55:21.277Z,4.90
2022-08-12T00:57:51.166Z,4.90
2022-08-12T01:00:22.223Z,4.80
2022-08-12T01:02:51.774Z,4.80
2022-08-12T01:05:39.985Z,4.50
2022-08-12T01:08:27.526Z,4.50
2022-08-12T01:11:14.905Z,4.30
2022-08-12T01:13:48.075Z,4.50
2022-08-12T01:16:22.113Z,4.20
2022-08-12T01:18:51.862Z,4.50
2022-08-12T01:21:46.225Z,4.70
2022-08-12T01:24:43.145Z,4.30
2022-08-12T01:27:13.722Z,4.40
2022-08-12T01:29:44.217Z,4.70
2022-08-12T01:32:13.929Z,4.30
2022-08-12T01:34:48.512Z,4.60
2022-08-12T01:37:19.573Z,4.40
2022-08-12T01:40:35.558Z,4.50
2022-08-12T01:42:45.670Z,4.90
2022-08-12T01:45:16.856Z,4.20
2022-08-12T01:50:32.569Z,4.50
2022-08-12T01:55:36.680Z,4.40
2022-08-12T01:58:15.572Z,4.30
2022-08-12T02:00:55.491Z,4.60
2022-08-12T02:04:02.346Z,4.50
2022-08-12T02:07:04.712Z,4.30
2022-08-12T02:10:07.637Z,4.30
2022-08-12T02:12:48.608Z,4.50
2022-08-12T02:15:26.814Z,3.90
2022-08-12T02:18:11.557Z,4.50
2022-08-12T02:21:01.455Z,4.30
2022-08-12T02:23:30.835Z,4.00
2022-08-12T02:26:04.308Z,4.00
2022-08-12T02:28:32.923Z,4.00
2022-08-12T02:31:05.778Z,4.20
2022-08-12T02:33:34.375Z,4.00
2022-08-12T02:36:04.096Z,4.30
2022-08-12T02:38:32.473Z,4.30
2022-08-12T02:41:04.423Z,4.50
2022-08-12T02:43:36.641Z,4.10
2022-08-12T02:46:13.404Z,3.90
2022-08-12T02:48:49.716Z,4.40
2022-08-12T02:51:19.921Z,4.40
2022-08-12T02:54:04.663Z,4.30
2022-08-12T02:56:37.296Z,4.30
2022-08-12T02:59:06.392Z,4.30
2022-08-12T03:01:47.767Z,4.50
2022-08-12T03:04:25.935Z,4.50
2022-08-12T03:07:02.129Z,4.20
2022-08-12T03:09:39.084Z,4.50
2022-08-12T03:12:24.622Z,4.20
2022-08-12T03:14:55.505Z,4.20
2022-08-12T03:17:29.017Z,4.60
2022-08-12T03:20:10.104Z,3.90
2022-08-12T03:22:40.287Z,4.20
2022-08-12T03:25:15.738Z,4.50
2022-08-12T03:27:49.119Z,4.70
2022-08-12T03:30:19.138Z,4.40
2022-08-12T03:32:49.559Z,4.40
2022-08-12T03:35:40.448Z,4.50
2022-08-12T03:38:15.321Z,4.80
2022-08-12T03:41:15.178Z,4.40
2022-08-12T03:44:10.064Z,4.30
2022-08-12T03:47:00.603Z,4.50
2022-08-12T03:49:47.309Z,4.30
2022-08-12T03:52:33.764Z,4.20
2022-08-12T03:55:20.572Z,5.10
2022-08-12T03:58:08.695Z,4.10
2022-08-12T04:00:37.385Z,3.90
2022-08-12T04:03:25.279Z,4.50
2022-08-12T04:05:55.901Z,4.60
2022-08-12T04:08:26.558Z,4.60
2022-08-12T04:11:14.510Z,5.00
2022-08-12T04:13:42.265Z,4.10
2022-08-12T04:16:12.889Z,4.40
2022-08-12T04:18:41.698Z,4.50
2022-08-12T04:21:09.877Z,4.60
2022-08-12T04:23:38.391Z,4.50
2022-08-12T04:26:06.555Z,4.40
2022-08-12T04:28:34.346Z,4.80
2022-08-12T04:31:03.990Z,4.30
2022-08-12T04:33:32.424Z,4.60
2022-08-12T04:36:00.309Z,4.60
2022-08-12T04:38:31.506Z,4.90
2022-08-12T04:40:59.958Z,4.50
2022-08-12T04:44:01.502Z,4.40
2022-08-12T04:46:19.543Z,4.30
2022-08-12T04:48:50.943Z,4.10
2022-08-12T04:51:21.034Z,4.60
2022-08-12T04:53:49.900Z,4.50
2022-08-12T04:56:18.451Z,4.50
2022-08-12T04:58:52.072Z,4.30
2022-08-12T05:01:20.468Z,4.70
2022-08-12T05:03:51.046Z,4.70
2022-08-12T05:06:26.343Z,4.70
2022-08-12T05:08:55.996Z,4.80
2022-08-12T05:11:24.574Z,4.80
2022-08-12T05:13:57.230Z,4.40
2022-08-12T05:16:30.894Z,4.50
2022-08-12T05:19:01.614Z,5.00
2022-08-12T05:21:30.370Z,4.70
2022-08-12T05:23:58.147Z,4.40
2022-08-12T05:26:26.553Z,4.50
2022-08-12T05:28:54.460Z,4.90
2022-08-12T05:31:47.228Z,4.60
2022-08-12T05:34:13.877Z,4.70
2022-08-12T05:36:43.112Z,4.80
2022-08-12T05:39:10.880Z,4.90
2022-08-12T05:41:39.273Z,4.40
2022-08-12T05:44:09.271Z,4.40
2022-08-12T05:46:37.679Z,4.30
2022-08-12T05:49:06.093Z,4.80
2022-08-12T05:51:40.800Z,4.80
2022-08-12T05:54:10.732Z,4.10
2022-08-12T05:56:39.391Z,4.40
2022-08-12T05:59:10.503Z,4.90
2022-08-12T06:02:09.255Z,4.60
2022-08-12T06:04:27.204Z,4.60
2022-08-12T06:06:55.166Z,4.50
2022-08-12T06:09:24.904Z,4.30
2022-08-12T06:12:04.913Z,4.80
2022-08-12T06:14:35.837Z,4.60
2022-08-12T06:17:04.990Z,4.50
2022-08-12T06:20:26.015Z,4.80
2022-08-12T06:22:20.608Z,4.80
2022-08-12T06:24:49.079Z,5.10
2022-08-12T06:27:18.009Z,4.80
2022-08-12T06:30:08.821Z,4.80
2022-08-12T06:32:34.481Z,5.30
2022-08-12T06:35:23.027Z,4.30
2022-08-12T06:37:56.645Z,4.50
2022-08-12T06:40:44.520Z,4.20
2022-08-12T06:43:13.441Z,5.00
2022-08-12T06:45:46.075Z,5.10
2022-08-12T06:48:15.927Z,4.60
2022-08-12T06:50:45.389Z,4.60
2022-08-12T06:53:13.274Z,4.50
2022-08-12T06:55:58.013Z,4.60
2022-08-12T06:58:27.148Z,4.80
2022-08-12T07:00:57.134Z,4.50
2022-08-12T07:03:28.027Z,4.40
2022-08-12T07:05:58.724Z,4.80
2022-08-12T07:08:28.313Z,4.30
2022-08-12T07:10:58.808Z,5.00
2022-08-12T07:13:28.157Z,4.40
2022-08-12T07:15:55.965Z,4.40
2022-08-12T07:18:29.465Z,4.40
2022-08-12T07:20:59.798Z,4.80
2022-08-12T07:23:30.124Z,4.70
2022-08-12T07:25:58.534Z,4.50
2022-08-12T07:28:30.313Z,4.70
2022-08-12T07:30:58.454Z,4.90
2022-08-12T07:33:28.767Z,4.40
2022-08-12T07:35:58.882Z,4.60
2022-08-12T07:38:30.444Z,4.30
2022-08-12T07:41:02.681Z,4.20
2022-08-12T07:43:31.800Z,4.00
2022-08-12T07:46:00.074Z,4.10
2022-08-12T07:48:34.252Z,4.30
2022-08-12T07:51:02.383Z,4.20
2022-08-12T07:53:30.223Z,4.00
2022-08-12T07:55:57.978Z,4.20
2022-08-12T07:58:26.848Z,4.30
2022-08-12T08:00:56.958Z,3.80
2022-08-12T08:03:25.495Z,4.20
2022-08-12T08:05:53.680Z,4.30
2022-08-12T08:08:24.249Z,4.00
2022-08-12T08:11:16.382Z,3.90
2022-08-12T08:13:46.541Z,4.20
2022-08-12T08:16:15.317Z,4.70
2022-08-12T08:18:43.515Z,3.80
2022-08-12T08:21:11.730Z,4.00
2022-08-12T08:24:02.016Z,4.00
2022-08-12T08:26:33.187Z,3.90
2022-08-12T08:29:02.410Z,4.00
2022-08-12T08:31:31.977Z,4.10
2022-08-12T08:34:47.197Z,3.70
2022-08-12T08:36:49.255Z,3.80
2022-08-12T08:39:17.220Z,3.60
2022-08-12T08:42:16.871Z,3.90
2022-08-12T08:44:49.776Z,4.10
2022-08-12T08:47:26.126Z,3.60
2022-08-12T08:50:00.307Z,4.50
2022-08-12T08:52:40.053Z,3.40
2022-08-12T08:55:10.497Z,3.80
2022-08-12T08:57:44.181Z,3.60
2022-08-12T09:00:17.685Z,3.90
2022-08-12T09:02:49.204Z,3.90
2022-08-12T09:05:27.031Z,3.70
2022-08-12T09:08:09.038Z,3.70
2022-08-12T09:10:45.002Z,3.90
2022-08-12T09:16:16.774Z,4.20
2022-08-12T09:18:48.414Z,3.50
2022-08-12T09:21:23.205Z,3.50
2022-08-12T09:24:00.368Z,3.50
2022-08-12T09:26:46.021Z,3.70
2022-08-12T09:29:15.399Z,3.60
2022-08-12T09:32:03.969Z,3.70
2022-08-12T09:34:33.575Z,3.70
2022-08-12T09:37:20.099Z,3.60
2022-08-12T09:40:06.207Z,3.70
2022-08-12T09:46:11.499Z,3.50
2022-08-12T09:48:36.699Z,3.30
2022-08-12T09:51:16.903Z,3.50
2022-08-12T09:54:08.654Z,3.80
2022-08-12T09:57:00.870Z,4.00
2022-08-12T10:00:12.897Z,3.40
2022-08-12T10:02:42.719Z,3.90
2022-08-12T10:05:04.247Z,4.00
2022-08-12T10:07:39.663Z,3.50
2022-08-12T10:10:24.372Z,3.90
2022-08-12T10:13:20.539Z,3.60
2022-08-12T10:16:06.037Z,3.60
2022-08-12T10:18:36.650Z,3.40
2022-08-12T10:21:23.318Z,3.80
2022-08-12T10:23:56.741Z,3.50
2022-08-12T10:26:39.931Z,3.90
2022-08-12T10:30:38.427Z,3.50
2022-08-12T10:32:45.396Z,3.50
2022-08-12T10:35:09.327Z,3.30
2022-08-12T10:38:37.172Z,3.30
2022-08-12T10:40:32.023Z,3.20
2022-08-12T10:43:18.533Z,3.60
2022-08-12T10:45:48.467Z,3.70
2022-08-12T10:48:21.268Z,3.70
2022-08-12T10:50:58.362Z,3.70
2022-08-12T10:53:45.864Z,3.70
2022-08-12T10:56:15.666Z,3.90
2022-08-12T10:58:45.881Z,3.50
2022-08-12T11:04:15.131Z,3.80
2022-08-12T11:04:20.236Z,3.40
2022-08-12T11:07:06.569Z,3.60
2022-08-12T11:09:59.790Z,3.50
2022-08-12T11:12:56.505Z,3.50
2022-08-12T11:15:33.525Z,3.40
2022-08-12T11:18:12.101Z,3.10
2022-08-12T11:20:47.173Z,3.20
2022-08-12T11:23:24.981Z,3.60
2022-08-12T11:26:06.319Z,3.10
2022-08-12T11:28:37.672Z,3.40
2022-08-12T11:31:12.355Z,3.30
2022-08-12T11:34:05.050Z,3.50
2022-08-12T11:36:30.930Z,3.40
2022-08-12T11:39:04.148Z,3.10
2022-08-12T11:41:33.902Z,3.50
2022-08-12T11:44:35.200Z,3.40
2022-08-12T11:46:52.661Z,3.60
2022-08-12T11:49:30.532Z,3.30
2022-08-12T11:52:03.498Z,3.70
2022-08-12T11:54:33.511Z,3.40
2022-08-12T12:02:40.269Z,3.60
2022-08-12T12:05:09.155Z,3.70
2022-08-12T12:08:37.532Z,3.60
2022-08-12T12:10:29.129Z,3.70
2022-08-12T12:12:57.080Z,3.40
2022-08-12T12:15:37.354Z,3.50
2022-08-12T12:18:22.536Z,3.30
2022-08-12T12:21:02.194Z,3.10
2022-08-12T12:23:36.235Z,3.10
2022-08-12T12:26:07.908Z,3.40
2022-08-12T12:28:39.779Z,3.30
2022-08-12T12:31:15.066Z,3.40
2022-08-12T12:33:58.581Z,3.60
2022-08-12T12:36:30.232Z,3.70
2022-08-12T12:39:00.080Z,3.10
2022-08-12T12:44:26.124Z,3.40
2022-08-12T12:47:04.878Z,3.20
2022-08-12T12:49:53.640Z,2.80
2022-08-12T12:52:21.704Z,3.40
2022-08-12T12:54:57.822Z,3.40
2022-08-12T12:57:36.459Z,3.50
2022-08-12T13:00:16.835Z,3.60
2022-08-12T13:02:53.627Z,3.50
2022-08-12T13:05:27.883Z,3.20
2022-08-12T13:08:01.044Z,3.20
2022-08-12T13:10:36.552Z,3.30
2022-08-12T13:14:07.878Z,3.00
2022-08-12T13:15:59.276Z,3.30
2022-08-12T13:18:30.733Z,3.40
2022-08-12T13:20:59.579Z,3.20
2022-08-12T13:23:36.114Z,3.20
2022-08-12T13:26:07.105Z,3.40
2022-08-12T13:28:45.018Z,3.40
2022-08-12T13:31:24.927Z,3.30
2022-08-12T13:34:32.838Z,3.20
2022-08-12T13:36:41.568Z,3.40
2022-08-12T13:39:09.676Z,3.00
2022-08-12T13:41:38.315Z,3.30
2022-08-12T13:44:10.626Z,3.10
2022-08-12T13:46:41.324Z,3.20
2022-08-12T13:49:17.642Z,3.40
2022-08-12T13:52:01.648Z,2.90
2022-08-12T13:54:29.385Z,3.30
2022-08-12T13:56:57.191Z,3.00
2022-08-12T13:59:26.714Z,2.80
2022-08-12T14:01:56.810Z,3.30
2022-08-12T14:06:53.292Z,3.30
2022-08-12T14:09:21.121Z,2.80
2022-08-12T14:11:59.180Z,3.00
2022-08-12T14:14:31.466Z,3.10
2022-08-12T14:17:09.988Z,2.70
2022-08-12T14:20:00.393Z,2.80
2022-08-12T14:22:29.144Z,3.10
2022-08-12T14:24:58.374Z,2.60
2022-08-12T14:28:03.515Z,3.00
2022-08-12T14:30:24.114Z,3.00
2022-08-12T14:33:02.875Z,2.90
2022-08-12T14:35:41.092Z,2.90
2022-08-12T14:38:25.450Z,2.60
2022-08-12T14:40:56.832Z,2.80
2022-08-12T14:43:26.916Z,2.90
2022-08-12T14:46:01.596Z,3.20
2022-08-12T14:48:30.052Z,3.00
2022-08-12T14:52:10.410Z,2.60
2022-08-12T14:55:05.698Z,3.10
2022-08-12T14:59:57.637Z,2.90
2022-08-12T15:02:28.919Z,3.00
2022-08-12T15:04:59.946Z,3.00
2022-08-12T15:07:34.469Z,3.20
2022-08-12T15:10:31.725Z,2.80
2022-08-12T15:13:05.017Z,2.70
2022-08-12T15:15:44.073Z,2.90
2022-08-12T15:18:15.666Z,3.00
2022-08-12T15:20:50.678Z,3.00
2022-08-12T15:23:21.583Z,2.90
2022-08-12T15:26:02.445Z,2.80
2022-08-12T15:28:33.238Z,2.80
2022-08-12T15:31:02.516Z,2.90
2022-08-12T15:33:44.924Z,2.90
2022-08-12T15:36:19.492Z,3.20
2022-08-12T15:39:03.974Z,3.10
2022-08-12T15:41:49.110Z,3.10
2022-08-12T15:44:38.502Z,2.90
2022-08-12T15:47:07.199Z,3.10
2022-08-12T15:49:55.003Z,3.20
2022-08-12T15:52:27.934Z,3.40
2022-08-12T15:54:59.105Z,2.90
2022-08-12T15:57:50.356Z,3.10
2022-08-12T16:00:32.791Z,2.90
2022-08-12T16:03:05.785Z,3.10
2022-08-12T16:06:11.359Z,3.30
2022-08-12T16:08:31.783Z,3.20
2022-08-12T16:11:00.267Z,2.90
2022-08-12T16:13:39.296Z,2.80
2022-08-12T16:16:23.750Z,3.40
2022-08-12T16:18:56.638Z,3.10
2022-08-12T16:21:52.306Z,3.50
2022-08-12T16:24:12.849Z,2.80
2022-08-12T16:26:42.328Z,2.90
2022-08-12T16:29:15.648Z,3.40
2022-08-12T16:31:44.799Z,2.80
2022-08-12T16:34:25.825Z,3.20
2022-08-12T16:37:03.701Z,3.00
2022-08-12T16:39:35.302Z,3.20
2022-08-12T16:42:23.969Z,2.80
2022-08-12T16:44:58.793Z,3.00
2022-08-12T16:47:27.534Z,3.30
2022-08-12T16:49:57.274Z,2.70
2022-08-12T16:52:25.101Z,2.90
2022-08-12T16:54:53.231Z,2.80
2022-08-12T16:57:43.046Z,2.60
2022-08-12T17:00:16.323Z,2.90
2022-08-12T17:02:50.664Z,2.70
2022-08-12T17:05:31.317Z,3.10
2022-08-12T17:07:59.597Z,2.90
2022-08-12T17:10:35.575Z,2.80
2022-08-12T17:13:09.885Z,3.10
2022-08-12T17:15:57.004Z,2.70
2022-08-12T17:18:44.043Z,3.00
2022-08-12T17:21:19.782Z,2.60
2022-08-12T17:23:53.627Z,3.00
2022-08-12T17:26:28.280Z,2.70
2022-08-12T17:29:00.225Z,2.90
2022-08-12T17:32:00.233Z,2.90
2022-08-12T17:34:33.620Z,2.70
2022-08-12T17:37:04.942Z,3.20
2022-08-12T17:39:36.676Z,2.80
2022-08-12T17:42:32.539Z,2.70
2022-08-12T17:45:17.822Z,2.80
2022-08-12T17:48:01.539Z,2.70
2022-08-12T17:50:36.093Z,2.60
2022-08-12T17:53:05.664Z,2.70
2022-08-12T17:55:44.113Z,2.60
2022-08-12T17:58:17.122Z,2.60
2022-08-12T18:00:45.596Z,2.60
2022-08-12T18:03:58.233Z,2.80
2022-08-12T18:06:13.729Z,3.00
2022-08-12T18:08:54.181Z,2.80
2022-08-12T18:12:06.519Z,3.00
2022-08-12T18:14:37.040Z,2.80
2022-08-12T18:17:08.888Z,3.00
2022-08-12T18:20:05.808Z,2.60
2022-08-12T18:22:40.768Z,2.60
2022-08-12T18:26:12.270Z,2.60
2022-08-12T18:28:15.672Z,2.70
2022-08-12T18:30:52.191Z,2.60
2022-08-12T18:33:24.239Z,3.10
2022-08-12T18:35:55.531Z,2.80
2022-08-12T18:38:26.342Z,3.40
2022-08-12T18:41:22.084Z,4.90
2022-08-12T18:44:01.105Z,5.20
2022-08-12T18:46:46.664Z,5.80
2022-08-12T18:49:18.938Z,5.20
2022-08-12T18:51:55.635Z,4.40
2022-08-12T18:54:34.211Z,4.00
2022-08-12T18:57:06.453Z,4.60
2022-08-12T19:00:01.450Z,4.60
2022-08-12T19:02:36.264Z,5.30
2022-08-12T19:05:09.317Z,4.50
2022-08-12T19:07:57.962Z,4.40
2022-08-12T19:10:30.959Z,4.80
2022-08-12T19:13:24.224Z,4.90
2022-08-12T19:15:57.943Z,4.70
2022-08-12T19:18:29.832Z,4.00
2022-08-12T19:20:59.805Z,4.10
2022-08-12T19:23:35.555Z,4.40
2022-08-12T19:26:04.595Z,4.30
2022-08-12T19:28:35.566Z,3.90
2022-08-12T19:31:57.562Z,4.40
2022-08-12T19:37:22.901Z,4.00
2022-08-12T19:40:09.950Z,4.30
2022-08-12T19:42:53.315Z,4.00
2022-08-12T19:45:22.364Z,4.40
2022-08-12T19:47:50.121Z,4.00
2022-08-12T19:50:20.265Z,4.20
2022-08-12T19:52:51.127Z,4.70
2022-08-12T19:55:23.677Z,4.00
2022-08-12T19:58:01.791Z,4.20
2022-08-12T20:00:31.811Z,4.00
2022-08-12T20:02:59.743Z,4.20
2022-08-12T20:06:04.740Z,4.30
2022-08-12T20:08:27.929Z,4.10
2022-08-12T20:12:12.352Z,4.20
2022-08-12T20:14:01.537Z,4.00
2022-08-12T20:16:52.325Z,4.00
2022-08-12T20:19:53.295Z,4.40
2022-08-12T20:22:24.792Z,4.10
2022-08-12T20:25:01.465Z,4.20
2022-08-12T20:28:03.397Z,4.40
2022-08-12T20:30:20.502Z,4.70
2022-08-12T20:33:08.022Z,4.80
2022-08-12T20:36:12.794Z,4.50
2022-08-12T20:38:38.769Z,4.00
2022-08-12T20:41:16.232Z,4.30
2022-08-12T20:43:45.662Z,3.80
2022-08-12T20:46:14.208Z,4.20
2022-08-12T20:48:43.722Z,3.90
2022-08-12T20:51:13.558Z,4.30
2022-08-12T20:53:57.959Z,4.40
2022-08-12T20:56:32.236Z,4.10
2022-08-12T20:59:02.670Z,4.80
2022-08-12T21:01:46.651Z,4.70
2022-08-12T21:04:36.144Z,4.60
2022-08-12T21:07:09.329Z,4.60
2022-08-12T21:09:40.996Z,5.10
2022-08-12T21:15:18.099Z,6.00
2022-08-12T21:18:08.733Z,5.60
2022-08-12T21:20:43.997Z,5.40
2022-08-12T21:23:13.153Z,6.00
2022-08-12T21:25:45.222Z,5.60
2022-08-12T21:28:13.990Z,5.20
2022-08-12T21:30:42.417Z,4.80
2022-08-12T21:33:30.858Z,4.20
2022-08-12T21:36:00.298Z,4.20
2022-08-12T21:38:34.918Z,3.80
2022-08-12T21:41:07.015Z,3.50
2022-08-12T21:43:44.479Z,3.20
2022-08-12T21:46:14.922Z,3.50
2022-08-12T21:49:04.852Z,4.00
2022-08-12T21:51:49.504Z,3.30
2022-08-12T21:54:22.013Z,3.80
2022-08-12T21:56:52.377Z,4.10
2022-08-12T22:01:49.934Z,3.70
2022-08-12T22:04:36.460Z,3.90
2022-08-12T22:07:05.741Z,3.60
2022-08-12T22:09:42.568Z,3.80
2022-08-12T22:12:29.894Z,3.40
2022-08-12T22:14:57.681Z,3.50
2022-08-12T22:17:32.877Z,3.80
2022-08-12T22:20:17.996Z,3.80
2022-08-12T22:22:56.297Z,3.90
2022-08-12T22:25:28.007Z,3.90
2022-08-12T22:28:14.031Z,4.40
2022-08-12T22:31:00.136Z,3.50
2022-08-12T22:33:27.943Z,4.10
2022-08-12T22:35:59.242Z,3.90
2022-08-12T22:38:29.233Z,4.10
2022-08-12T22:41:01.243Z,4.50
2022-08-12T22:44:00.266Z,4.20
2022-08-12T22:46:51.886Z,4.00
2022-08-12T22:49:37.175Z,3.90
2022-08-12T22:52:11.733Z,4.20
2022-08-12T22:54:46.127Z,4.30
2022-08-12T22:57:53.206Z,4.50
2022-08-12T23:00:23.889Z,4.10
2022-08-12T23:02:56.656Z,3.90
2022-08-12T23:05:57.236Z,4.40
2022-08-12T23:08:21.481Z,4.20
2022-08-12T23:10:50.313Z,3.80
2022-08-12T23:13:43.477Z,4.30
2022-08-12T23:16:28.501Z,4.30
2022-08-12T23:19:10.691Z,4.60
2022-08-12T23:22:03.958Z,3.90
2022-08-12T23:24:53.777Z,4.80
2022-08-12T23:27:51.812Z,4.80
2022-08-12T23:30:31.950Z,4.70
2022-08-12T23:33:20.511Z,4.50
2022-08-12T23:36:02.580Z,4.60
2022-08-12T23:38:32.848Z,4.20
2022-08-12T23:41:03.301Z,4.60
2022-08-12T23:43:39.349Z,4.30
2022-08-12T23:46:10.051Z,3.80
2022-08-12T23:48:38.973Z,4.70
2022-08-12T23:51:22.399Z,4.20
2022-08-12T23:53:55.473Z,4.30
2022-08-12T23:58:54.292Z,4.00
